createdAt,value
2022-08-25T00:00:21.375Z,70.08
2022-08-25T00:03:05.936Z,70.29
2022-08-25T00:05:35.039Z,70.03
2022-08-25T00:08:05.959Z,70.33
2022-08-25T00:10:38.607Z,70.50
2022-08-25T00:13:07.538Z,70.12
2022-08-25T00:15:36.540Z,70.17
2022-08-25T00:18:05.418Z,70.28
2022-08-25T00:20:48.881Z,70.35
2022-08-25T00:23:18.011Z,70.69
2022-08-25T00:25:47.150Z,70.41
2022-08-25T00:28:16.435Z,70.41
2022-08-25T00:30:45.295Z,70.91
2022-08-25T00:33:14.231Z,70.89
2022-08-25T00:35:43.543Z,70.82
2022-08-25T00:38:12.837Z,71.17
2022-08-25T00:40:42.744Z,71.27
2022-08-25T00:43:12.317Z,71.35
2022-08-25T00:45:41.312Z,71.42
2022-08-25T00:48:10.452Z,71.37
2022-08-25T00:50:39.025Z,71.35
2022-08-25T00:53:09.250Z,70.95
2022-08-25T00:55:40.352Z,71.18
2022-08-25T00:58:14.536Z,71.15
2022-08-25T01:00:48.920Z,71.60
2022-08-25T01:03:19.529Z,71.37
2022-08-25T01:05:48.993Z,71.40
2022-08-25T01:08:20.620Z,71.37
2022-08-25T01:10:50.828Z,71.46
2022-08-25T01:13:24.316Z,71.97
2022-08-25T01:15:55.539Z,72.07
2022-08-25T01:18:25.302Z,72.03
2022-08-25T01:20:54.658Z,71.55
2022-08-25T01:23:24.058Z,72.04
2022-08-25T01:26:01.516Z,72.12
2022-08-25T01:28:30.661Z,72.24
2022-08-25T01:30:59.233Z,72.23
2022-08-25T01:33:27.864Z,72.29
2022-08-25T01:35:56.244Z,72.08
2022-08-25T01:38:24.679Z,72.42
2022-08-25T01:40:53.316Z,72.62
2022-08-25T01:43:31.283Z,72.07
2022-08-25T01:45:59.917Z,72.49
2022-08-25T01:48:28.588Z,72.82
2022-08-25T01:50:57.086Z,72.34
2022-08-25T01:53:29.605Z,72.71
2022-08-25T01:56:10.419Z,72.63
2022-08-25T01:58:42.372Z,72.80
2022-08-25T02:01:15.368Z,72.41
2022-08-25T02:03:48.086Z,72.93
2022-08-25T02:06:27.657Z,72.50
2022-08-25T02:09:01.391Z,72.64
2022-08-25T02:11:30.262Z,72.63
2022-08-25T02:14:00.401Z,72.96
2022-08-25T02:16:36.952Z,72.57
2022-08-25T02:19:08.048Z,72.74
2022-08-25T02:21:37.171Z,72.55
2022-08-25T02:24:06.714Z,73.04
2022-08-25T02:26:35.962Z,73.08
2022-08-25T02:29:04.804Z,73.03
2022-08-25T02:31:34.281Z,72.94
2022-08-25T02:34:04.126Z,73.25
2022-08-25T02:36:32.975Z,72.98
2022-08-25T02:39:02.092Z,72.82
2022-08-25T02:41:33.018Z,72.61
2022-08-25T02:44:03.312Z,73.04
2022-08-25T02:46:32.580Z,73.27
2022-08-25T02:49:01.392Z,73.26
2022-08-25T02:51:31.375Z,73.15
2022-08-25T02:54:02.127Z,72.87
2022-08-25T02:56:32.101Z,73.08
2022-08-25T02:59:02.248Z,73.32
2022-08-25T03:01:32.530Z,73.16
2022-08-25T03:04:01.968Z,73.15
2022-08-25T03:06:31.064Z,72.86
2022-08-25T03:09:00.912Z,73.45
2022-08-25T03:11:31.230Z,73.27
2022-08-25T03:13:59.710Z,72.94
2022-08-25T03:16:28.325Z,72.97
2022-08-25T03:18:58.959Z,73.34
2022-08-25T03:21:29.553Z,73.19
2022-08-25T03:23:58.961Z,73.48
2022-08-25T03:26:45.826Z,73.67
2022-08-25T03:29:14.905Z,73.50
2022-08-25T03:31:44.232Z,73.59
2022-08-25T03:34:13.164Z,73.68
2022-08-25T03:36:42.057Z,73.61
2022-08-25T03:39:10.558Z,73.33
2022-08-25T03:41:39.501Z,73.77
2022-08-25T03:44:09.823Z,73.84
2022-08-25T03:46:41.396Z,73.62
2022-08-25T03:49:12.630Z,73.89
2022-08-25T03:51:43.744Z,73.77
2022-08-25T03:54:13.258Z,74.04
2022-08-25T03:56:42.730Z,74.32
2022-08-25T03:59:11.162Z,74.23
2022-08-25T04:01:42.206Z,73.96
2022-08-25T04:04:12.171Z,73.86
2022-08-25T04:06:42.977Z,73.92
2022-08-25T04:09:12.322Z,74.20
2022-08-25T04:11:42.590Z,73.76
2022-08-25T04:14:13.782Z,74.25
2022-08-25T04:16:45.973Z,74.38
2022-08-25T04:19:14.470Z,74.22
2022-08-25T04:21:43.050Z,73.93
2022-08-25T04:24:13.388Z,74.03
2022-08-25T04:26:47.537Z,73.83
2022-08-25T04:29:18.430Z,74.13
2022-08-25T04:31:50.444Z,74.42
2022-08-25T04:34:30.186Z,74.14
2022-08-25T04:37:01.133Z,73.81
2022-08-25T04:39:30.309Z,74.01
2022-08-25T04:42:00.035Z,74.48
2022-08-25T04:44:29.696Z,74.10
2022-08-25T04:46:58.725Z,73.97
2022-08-25T04:49:28.234Z,74.24
2022-08-25T04:51:56.980Z,74.04
2022-08-25T04:54:27.462Z,73.87
2022-08-25T04:56:58.243Z,73.89
2022-08-25T04:59:30.155Z,74.24
2022-08-25T05:02:01.664Z,74.03
2022-08-25T05:04:31.350Z,73.97
2022-08-25T05:07:01.089Z,74.17
2022-08-25T05:09:32.343Z,73.81
2022-08-25T05:12:02.962Z,73.82
2022-08-25T05:14:32.623Z,73.31
2022-08-25T05:17:01.466Z,73.75
2022-08-25T05:19:30.010Z,73.01
2022-08-25T05:21:58.545Z,72.45
2022-08-25T05:24:27.435Z,72.22
2022-08-25T05:26:57.173Z,71.52
2022-08-25T05:29:26.497Z,70.97
2022-08-25T05:31:55.096Z,70.36
2022-08-25T05:34:24.411Z,69.89
2022-08-25T05:36:53.979Z,70.22
2022-08-25T05:39:22.656Z,69.84
2022-08-25T05:41:52.399Z,69.44
2022-08-25T05:44:21.497Z,69.15
2022-08-25T05:46:51.009Z,69.42
2022-08-25T05:49:19.921Z,69.15
2022-08-25T05:51:48.518Z,68.92
2022-08-25T05:54:16.960Z,68.76
2022-08-25T05:56:45.607Z,68.62
2022-08-25T05:59:14.172Z,68.91
2022-08-25T06:02:01.532Z,68.81
2022-08-25T06:04:30.074Z,69.06
2022-08-25T06:06:58.553Z,68.67
2022-08-25T06:09:27.028Z,68.80
2022-08-25T06:11:55.605Z,68.23
2022-08-25T06:14:24.628Z,68.16
2022-08-25T06:16:53.146Z,68.38
2022-08-25T06:19:23.006Z,68.04
2022-08-25T06:21:54.865Z,68.21
2022-08-25T06:24:23.966Z,67.80
2022-08-25T06:26:52.703Z,67.85
2022-08-25T06:29:21.759Z,67.85
2022-08-25T06:31:50.683Z,67.21
2022-08-25T06:34:19.301Z,67.18
2022-08-25T06:36:48.761Z,67.31
2022-08-25T06:39:18.020Z,67.14
2022-08-25T06:41:50.142Z,66.98
2022-08-25T06:44:19.126Z,66.62
2022-08-25T06:46:47.587Z,66.58
2022-08-25T06:49:16.151Z,66.83
2022-08-25T06:51:45.292Z,66.44
2022-08-25T06:54:13.835Z,66.59
2022-08-25T06:56:42.967Z,66.45
2022-08-25T06:59:12.268Z,65.97
2022-08-25T07:01:40.945Z,66.29
2022-08-25T07:04:13.143Z,65.47
2022-08-25T07:06:42.483Z,65.54
2022-08-25T07:09:12.652Z,65.80
2022-08-25T07:11:41.904Z,65.46
2022-08-25T07:14:12.688Z,65.05
2022-08-25T07:16:48.534Z,65.16
2022-08-25T07:19:20.392Z,65.23
2022-08-25T07:21:51.540Z,64.89
2022-08-25T07:24:21.490Z,64.80
2022-08-25T07:26:50.377Z,64.62
2022-08-25T07:29:31.879Z,64.37
2022-08-25T07:32:02.453Z,64.47
2022-08-25T07:34:52.293Z,64.43
2022-08-25T07:40:14.559Z,63.78
2022-08-25T07:42:43.737Z,63.74
2022-08-25T07:45:14.033Z,63.67
2022-08-25T07:47:45.974Z,63.38
2022-08-25T07:50:14.723Z,63.22
2022-08-25T07:52:43.222Z,62.83
2022-08-25T07:55:12.383Z,62.86
2022-08-25T07:57:49.860Z,62.53
2022-08-25T08:00:23.119Z,62.16
2022-08-25T08:02:53.377Z,62.13
2022-08-25T08:05:23.847Z,61.36
2022-08-25T08:07:52.771Z,60.97
2022-08-25T08:10:48.069Z,60.69
2022-08-25T08:13:13.488Z,60.74
2022-08-25T08:15:47.312Z,60.69
2022-08-25T08:18:15.989Z,60.49
2022-08-25T08:20:45.442Z,60.42
2022-08-25T08:23:14.941Z,60.15
2022-08-25T08:25:43.923Z,60.06
2022-08-25T08:28:12.427Z,59.96
2022-08-25T08:30:53.450Z,59.70
2022-08-25T08:33:24.530Z,59.66
2022-08-25T08:36:04.850Z,59.32
2022-08-25T08:38:34.687Z,58.99
2022-08-25T08:42:07.610Z,58.65
2022-08-25T08:44:40.369Z,58.25
2022-08-25T08:47:21.402Z,57.68
2022-08-25T08:50:02.184Z,56.92
2022-08-25T08:52:41.006Z,56.16
2022-08-25T08:55:19.047Z,55.96
2022-08-25T08:57:52.429Z,55.34
2022-08-25T09:00:25.029Z,55.23
2022-08-25T09:03:00.927Z,55.06
2022-08-25T09:05:43.802Z,54.45
2022-08-25T09:08:20.476Z,53.38
2022-08-25T09:11:01.158Z,52.86
2022-08-25T09:13:47.488Z,52.49
2022-08-25T09:16:43.398Z,51.81
2022-08-25T09:19:31.030Z,51.39
2022-08-25T09:22:34.994Z,50.81
2022-08-25T09:25:11.033Z,50.00
2022-08-25T09:27:45.712Z,49.52
2022-08-25T09:30:17.644Z,48.77
2022-08-25T09:32:52.463Z,48.39
2022-08-25T09:35:25.566Z,47.51
2022-08-25T09:37:59.606Z,46.63
2022-08-25T09:40:31.155Z,45.70
2022-08-25T09:43:02.749Z,45.50
2022-08-25T09:45:37.709Z,45.17
2022-08-25T09:48:22.530Z,44.73
2022-08-25T09:50:54.618Z,44.31
2022-08-25T09:53:23.619Z,43.92
2022-08-25T09:56:00.498Z,43.69
2022-08-25T09:58:29.121Z,43.20
2022-08-25T10:01:13.013Z,42.49
2022-08-25T10:04:00.003Z,41.59
2022-08-25T10:06:33.668Z,41.02
2022-08-25T10:09:06.000Z,40.59
2022-08-25T10:11:42.082Z,40.76
2022-08-25T10:14:26.300Z,40.68
2022-08-25T10:17:13.502Z,39.96
2022-08-25T10:19:42.843Z,39.90
2022-08-25T10:22:21.111Z,39.34
2022-08-25T10:24:49.852Z,39.16
2022-08-25T10:27:28.690Z,38.77
2022-08-25T10:30:18.598Z,38.43
2022-08-25T10:33:03.547Z,37.77
2022-08-25T10:35:41.054Z,37.27
2022-08-25T10:38:23.939Z,36.97
2022-08-25T10:41:03.442Z,36.22
2022-08-25T10:43:37.178Z,36.17
2022-08-25T10:46:14.585Z,36.04
2022-08-25T10:48:57.810Z,34.90
2022-08-25T10:51:51.161Z,34.58
2022-08-25T10:54:31.846Z,34.11
2022-08-25T10:57:10.893Z,34.22
2022-08-25T10:59:57.721Z,33.94
2022-08-25T11:03:11.254Z,33.77
2022-08-25T11:05:46.655Z,33.63
2022-08-25T11:08:32.082Z,33.30
2022-08-25T11:11:08.021Z,32.85
2022-08-25T11:13:46.442Z,32.48
2022-08-25T11:16:19.262Z,32.31
2022-08-25T11:18:56.005Z,32.28
2022-08-25T11:21:34.891Z,31.77
2022-08-25T11:24:15.781Z,32.21
2022-08-25T11:26:49.604Z,31.89
2022-08-25T11:29:21.645Z,31.44
2022-08-25T11:31:53.293Z,31.78
2022-08-25T11:34:22.846Z,31.60
2022-08-25T11:36:54.660Z,31.24
2022-08-25T11:39:37.844Z,31.10
2022-08-25T11:42:21.256Z,30.95
2022-08-25T11:45:01.880Z,30.91
2022-08-25T11:47:47.600Z,30.58
2022-08-25T11:50:30.700Z,30.96
2022-08-25T11:53:15.211Z,30.48
2022-08-25T11:55:50.723Z,30.33
2022-08-25T11:58:42.065Z,29.94
2022-08-25T12:01:32.733Z,29.38
2022-08-25T12:04:33.238Z,29.44
2022-08-25T12:07:22.630Z,29.14
2022-08-25T12:10:20.231Z,29.18
2022-08-25T12:13:26.201Z,29.29
2022-08-25T12:16:00.067Z,29.11
2022-08-25T12:18:45.570Z,29.07
2022-08-25T12:21:29.003Z,29.37
2022-08-25T12:24:16.915Z,29.23
2022-08-25T12:26:56.608Z,28.78
2022-08-25T12:29:38.043Z,28.64
2022-08-25T12:32:29.408Z,28.66
2022-08-25T12:35:22.418Z,28.53
2022-08-25T12:37:58.495Z,28.33
2022-08-25T12:40:32.260Z,28.50
2022-08-25T12:43:13.675Z,28.63
2022-08-25T12:45:49.924Z,28.41
2022-08-25T12:48:41.081Z,28.56
2022-08-25T12:51:18.008Z,28.30
2022-08-25T12:53:50.879Z,28.54
2022-08-25T12:56:39.852Z,28.25
2022-08-25T12:59:19.329Z,27.98
2022-08-25T13:02:08.520Z,28.27
2022-08-25T13:05:11.269Z,28.17
2022-08-25T13:07:56.783Z,27.96
2022-08-25T13:10:45.200Z,28.07
2022-08-25T13:13:23.867Z,28.11
2022-08-25T13:16:01.367Z,28.16
2022-08-25T13:18:31.792Z,28.02
2022-08-25T13:21:11.018Z,28.23
2022-08-25T13:23:42.931Z,28.39
2022-08-25T13:26:15.258Z,28.35
2022-08-25T13:28:50.551Z,28.34
2022-08-25T13:31:21.834Z,28.33
2022-08-25T13:33:56.012Z,28.70
2022-08-25T13:36:51.063Z,28.53
2022-08-25T13:39:45.592Z,28.45
2022-08-25T13:42:16.684Z,28.47
2022-08-25T13:44:51.991Z,28.27
2022-08-25T13:47:43.325Z,28.40
2022-08-25T13:50:30.742Z,28.50
2022-08-25T13:53:02.731Z,28.09
2022-08-25T13:55:38.273Z,28.82
2022-08-25T13:58:24.755Z,28.68
2022-08-25T14:01:23.624Z,28.69
2022-08-25T14:04:31.599Z,28.56
2022-08-25T14:07:12.305Z,28.81
2022-08-25T14:09:48.460Z,28.77
2022-08-25T14:12:33.614Z,28.40
2022-08-25T14:15:07.923Z,28.68
2022-08-25T14:17:40.813Z,28.54
2022-08-25T14:20:28.150Z,28.68
2022-08-25T14:22:59.443Z,28.91
2022-08-25T14:25:31.720Z,28.81
2022-08-25T14:28:06.630Z,28.53
2022-08-25T14:30:48.951Z,28.89
2022-08-25T14:33:19.735Z,28.81
2022-08-25T14:35:51.296Z,28.63
2022-08-25T14:38:20.662Z,28.75
2022-08-25T14:40:49.569Z,28.67
2022-08-25T14:43:23.754Z,28.72
2022-08-25T14:45:53.338Z,28.23
2022-08-25T14:48:25.936Z,28.41
2022-08-25T14:50:56.574Z,28.73
2022-08-25T14:53:26.325Z,28.71
2022-08-25T14:55:55.673Z,28.89
2022-08-25T14:58:33.851Z,28.75
2022-08-25T15:01:05.624Z,28.83
2022-08-25T15:03:38.024Z,28.92
2022-08-25T15:06:07.214Z,29.09
2022-08-25T15:08:54.059Z,28.77
2022-08-25T15:11:22.630Z,28.95
2022-08-25T15:13:51.142Z,28.89
2022-08-25T15:16:24.543Z,29.07
2022-08-25T15:19:06.729Z,29.44
2022-08-25T15:21:36.126Z,29.40
2022-08-25T15:24:06.537Z,29.32
2022-08-25T15:26:42.120Z,29.37
2022-08-25T15:29:11.028Z,29.75
2022-08-25T15:31:39.865Z,29.31
2022-08-25T15:34:11.924Z,29.66
2022-08-25T15:36:41.611Z,29.41
2022-08-25T15:39:11.219Z,29.58
2022-08-25T15:41:39.794Z,29.68
2022-08-25T15:44:11.171Z,29.45
2022-08-25T15:46:41.870Z,29.60
2022-08-25T15:49:15.832Z,29.67
2022-08-25T15:51:52.425Z,29.51
2022-08-25T15:54:22.011Z,29.60
2022-08-25T15:56:51.708Z,29.57
2022-08-25T15:59:21.864Z,29.71
2022-08-25T16:01:52.879Z,29.30
2022-08-25T16:04:23.536Z,29.41
2022-08-25T16:06:52.592Z,29.50
2022-08-25T16:09:22.743Z,29.86
2022-08-25T16:11:57.068Z,29.65
2022-08-25T16:14:27.593Z,29.81
2022-08-25T16:16:58.280Z,29.95
2022-08-25T16:19:28.617Z,29.39
2022-08-25T16:21:58.264Z,29.90
2022-08-25T16:24:26.919Z,29.81
2022-08-25T16:27:11.442Z,29.77
2022-08-25T16:29:42.041Z,29.86
2022-08-25T16:32:13.394Z,30.24
2022-08-25T16:34:44.240Z,29.91
2022-08-25T16:37:13.471Z,30.37
2022-08-25T16:39:44.968Z,30.44
2022-08-25T16:42:13.919Z,30.36
2022-08-25T16:44:42.950Z,30.29
2022-08-25T16:47:13.957Z,30.54
2022-08-25T16:49:43.469Z,30.56
2022-08-25T16:52:31.275Z,30.52
2022-08-25T16:55:12.508Z,30.72
2022-08-25T16:57:44.852Z,30.86
2022-08-25T17:00:16.636Z,31.42
2022-08-25T17:02:45.631Z,31.61
2022-08-25T17:05:14.450Z,31.98
2022-08-25T17:07:43.467Z,32.08
2022-08-25T17:10:12.550Z,32.24
2022-08-25T17:12:41.725Z,32.45
2022-08-25T17:15:10.844Z,32.91
2022-08-25T17:17:39.417Z,32.75
2022-08-25T17:20:09.488Z,33.15
2022-08-25T17:22:37.935Z,33.44
2022-08-25T17:25:09.077Z,33.59
2022-08-25T17:27:37.565Z,33.46
2022-08-25T17:30:08.564Z,33.56
2022-08-25T17:32:37.172Z,33.89
2022-08-25T17:35:08.324Z,34.15
2022-08-25T17:37:37.315Z,34.55
2022-08-25T17:40:09.143Z,34.76
2022-08-25T17:42:40.295Z,34.90
2022-08-25T17:45:09.648Z,35.06
2022-08-25T17:47:38.132Z,34.91
2022-08-25T17:50:08.247Z,35.17
2022-08-25T17:52:36.763Z,35.34
2022-08-25T17:55:08.628Z,35.10
2022-08-25T17:57:41.109Z,35.41
2022-08-25T18:00:13.508Z,35.65
2022-08-25T18:02:43.237Z,35.97
2022-08-25T18:05:12.900Z,36.19
2022-08-25T18:07:43.944Z,36.84
2022-08-25T18:10:13.294Z,37.16
2022-08-25T18:12:44.624Z,37.35
2022-08-25T18:15:14.816Z,37.17
2022-08-25T18:17:43.985Z,37.69
2022-08-25T18:20:14.646Z,37.97
2022-08-25T18:22:44.095Z,37.93
2022-08-25T18:25:15.754Z,38.43
2022-08-25T18:27:45.619Z,38.86
2022-08-25T18:30:14.825Z,39.21
2022-08-25T18:32:43.508Z,39.42
2022-08-25T18:35:12.104Z,39.67
2022-08-25T18:37:59.462Z,40.03
2022-08-25T18:40:28.506Z,39.76
2022-08-25T18:42:59.844Z,40.28
2022-08-25T18:45:31.729Z,40.71
2022-08-25T18:48:00.782Z,41.05
2022-08-25T18:50:33.617Z,40.93
2022-08-25T18:53:03.308Z,41.57
2022-08-25T18:55:34.966Z,41.48
2022-08-25T18:58:05.433Z,41.81
2022-08-25T19:00:36.847Z,42.13
2022-08-25T19:03:05.876Z,42.01
2022-08-25T19:05:38.631Z,42.40
2022-08-25T19:08:11.078Z,42.69
2022-08-25T19:10:41.667Z,42.94
2022-08-25T19:13:10.875Z,42.64
2022-08-25T19:15:41.387Z,42.78
2022-08-25T19:18:11.014Z,43.46
2022-08-25T19:20:40.370Z,43.17
2022-08-25T19:23:10.424Z,43.22
2022-08-25T19:25:41.654Z,43.99
2022-08-25T19:28:12.884Z,43.67
2022-08-25T19:30:49.983Z,43.52
2022-08-25T19:33:37.124Z,43.97
2022-08-25T19:36:09.190Z,43.58
2022-08-25T19:38:39.108Z,44.01
2022-08-25T19:41:14.041Z,44.43
2022-08-25T19:43:56.222Z,44.85
2022-08-25T19:46:32.602Z,45.15
2022-08-25T19:49:07.215Z,44.73
2022-08-25T19:51:39.007Z,45.37
2022-08-25T19:54:09.156Z,45.28
2022-08-25T19:56:44.048Z,45.54
2022-08-25T19:59:26.252Z,45.45
2022-08-25T20:01:55.072Z,46.13
2022-08-25T20:04:24.735Z,45.68
2022-08-25T20:06:55.359Z,46.37
2022-08-25T20:09:38.829Z,46.02
2022-08-25T20:12:11.185Z,46.67
2022-08-25T20:14:40.347Z,46.51
2022-08-25T20:17:23.189Z,46.56
2022-08-25T20:19:55.355Z,47.00
2022-08-25T20:22:26.803Z,47.38
2022-08-25T20:24:58.469Z,47.44
2022-08-25T20:27:32.244Z,47.85
2022-08-25T20:30:02.544Z,47.94
2022-08-25T20:32:33.042Z,47.64
2022-08-25T20:35:03.918Z,48.01
2022-08-25T20:37:33.781Z,48.18
2022-08-25T20:40:03.848Z,48.07
2022-08-25T20:42:32.306Z,48.58
2022-08-25T20:45:01.048Z,48.41
2022-08-25T20:47:29.691Z,48.66
2022-08-25T20:50:00.371Z,49.06
2022-08-25T20:52:32.107Z,49.00
2022-08-25T20:55:01.227Z,49.19
2022-08-25T20:57:29.867Z,49.38
2022-08-25T20:59:59.948Z,49.69
2022-08-25T21:02:30.009Z,49.38
2022-08-25T21:04:58.687Z,49.41
2022-08-25T21:07:27.411Z,49.77
2022-08-25T21:09:56.759Z,50.03
2022-08-25T21:12:25.243Z,49.80
2022-08-25T21:14:55.757Z,49.85
2022-08-25T21:17:25.801Z,49.95
2022-08-25T21:19:54.348Z,50.53
2022-08-25T21:22:22.925Z,50.51
2022-08-25T21:24:51.668Z,50.27
2022-08-25T21:27:20.186Z,50.48
2022-08-25T21:29:54.417Z,50.96
2022-08-25T21:32:24.409Z,51.18
2022-08-25T21:34:53.749Z,50.79
2022-08-25T21:37:22.500Z,51.12
2022-08-25T21:39:51.548Z,51.06
2022-08-25T21:42:22.646Z,51.41
2022-08-25T21:51:05.013Z,51.33
2022-08-25T21:53:35.142Z,51.91
2022-08-25T21:56:05.520Z,51.97
2022-08-25T21:58:35.618Z,51.80
2022-08-25T22:01:06.608Z,52.41
2022-08-25T22:03:41.702Z,52.41
2022-08-25T22:06:12.272Z,52.64
2022-08-25T22:08:42.308Z,52.80
2022-08-25T22:11:14.653Z,52.97
2022-08-25T22:13:47.493Z,52.79
2022-08-25T22:16:21.445Z,53.27
2022-08-25T22:18:51.167Z,52.93
2022-08-25T22:21:22.000Z,53.24
2022-08-25T22:23:50.907Z,53.21
2022-08-25T22:26:22.130Z,53.59
2022-08-25T22:28:51.182Z,53.74
2022-08-25T22:31:20.910Z,53.50
2022-08-25T22:33:50.368Z,53.55
2022-08-25T22:36:24.216Z,53.77
2022-08-25T22:38:53.768Z,53.55
2022-08-25T22:41:24.340Z,53.93
2022-08-25T22:43:56.109Z,54.13
2022-08-25T22:46:27.896Z,54.04
2022-08-25T22:48:57.217Z,54.02
2022-08-25T22:51:29.874Z,54.33
2022-08-25T22:53:59.884Z,54.42
2022-08-25T22:56:31.360Z,54.72
2022-08-25T22:59:03.535Z,54.63
2022-08-25T23:01:33.859Z,54.67
2022-08-25T23:04:04.078Z,55.04
2022-08-25T23:06:33.825Z,55.00
2022-08-25T23:09:05.071Z,55.00
2022-08-25T23:11:35.110Z,55.36
2022-08-25T23:14:06.028Z,55.40
2022-08-25T23:16:34.544Z,55.38
2022-08-25T23:19:03.676Z,55.30
2022-08-25T23:21:52.574Z,55.64
2022-08-25T23:24:29.234Z,55.90
2022-08-25T23:27:00.916Z,55.92
2022-08-25T23:29:29.927Z,56.11
2022-08-25T23:31:59.337Z,56.05
2022-08-25T23:34:28.595Z,56.44
2022-08-25T23:36:57.826Z,56.69
2022-08-25T23:39:26.249Z,56.52
2022-08-25T23:41:54.744Z,56.53
2022-08-25T23:44:25.617Z,56.76
2022-08-25T23:46:54.674Z,56.71
2022-08-25T23:49:24.289Z,57.02
2022-08-25T23:51:56.019Z,57.13
2022-08-25T23:54:30.946Z,56.88
2022-08-25T23:57:01.517Z,57.11
2022-08-25T23:59:30.213Z,57.13
